Flight Track Log - Related Links

Times and Time Zones

All times are in EDT time to prevent confusion due to time zone crossing. See the ASQ5685 flight status page for this flight to view local times or setup timezone preferences in your user account.

Time Position Orientation Groundspeed Altitude Reporting Facility
EDT Latitude Longitude Course Direction KTS MPH feet Rate Location/Type
Wed 02:47:04 PM 44.3447 -73.1164 195° South 258 297 6,200  Level Boston Center
Wed 02:48:04 PM 44.2719 -73.0983 170° South 258 297 9,100 2,500 Climbing Boston Center
Wed 02:49:00 PM 44.0324 -73.3138 196° South  Level FlightAware Approximate
Wed 02:49:04 PM 44.1989 -73.1206 192° South 258 297 11,200  Level Boston Center
Wed 02:50:00 PM 43.9457 -73.3484 196° South  Level FlightAware Approximate
Wed 02:50:04 PM 44.1153 -73.1600 199° South 299 344 12,600  Level Boston Center
Wed 02:51:00 PM 43.8588 -73.3819 195° South  Level FlightAware Approximate
Wed 02:51:04 PM 44.0253 -73.2053 200° South 336 387 14,000  Level Boston Center
Wed 02:52:00 PM 43.7717 -73.4141 195° South  Level FlightAware Approximate
Wed 02:52:04 PM 43.9314 -73.2472 198° South 356 410 14,000  Level Boston Center
Wed 02:53:04 PM 43.8331 -73.2950 199° South 370 426 14,400 850 Climbing Boston Center
Wed 02:54:04 PM 43.7347 -73.3394 198° South 370 426 15,700 1,400 Climbing Boston Center
Wed 02:55:04 PM 43.6344 -73.3867 199° South 378 435 17,200 1,500 Climbing Boston Center
Wed 02:56:04 PM 43.5361 -73.4339 199° South 378 435 18,700 1,350 Climbing Boston Center
Wed 02:57:04 PM 43.4378 -73.4836 200° South 378 435 19,900 1,045 Climbing Boston Center
Wed 02:58:16 PM 43.3353 -73.5247 196° South 378 435 21,000 1,182 Climbing Boston Center
Wed 02:59:16 PM 43.2158 -73.5825 199° South 383 441 22,500 1,200 Climbing Boston Center
Wed 03:00:16 PM 43.1236 -73.6292 200° South 391 450 23,400 1,050 Climbing Boston Center
Wed 03:01:16 PM 43.0253 -73.6756 199° South 386 444 24,600 1,100 Climbing Boston Center
Wed 03:02:16 PM 42.9225 -73.7244 199° South 386 444 25,600 700 Climbing Boston Center
Wed 03:03:16 PM 42.8156 -73.7733 199° South 391 450 26,000 550 Climbing Boston Center
Wed 03:04:16 PM 42.7108 -73.8189 198° South 398 458 26,700 650 Climbing Boston Center
Wed 03:05:16 PM 42.6250 -73.8594 199° South 398 458 27,300 650 Climbing Boston Center
Wed 03:06:16 PM 42.5117 -73.9131 199° South 398 458 28,000 350 Climbing Boston Center
Wed 03:07:16 PM 42.3839 -73.9692 198° South 404 465 28,000  Level Boston Center
Wed 03:08:16 PM 42.2769 -74.0169 198° South 410 472 28,000  Level Boston Center
Wed 03:09:16 PM 42.1619 -74.0422 189° South 410 472 28,000  Level Boston Center
Wed 03:10:16 PM 42.0472 -74.0475 182° South 415 478 28,000  Level Boston Center
Wed 03:11:16 PM 41.9303 -74.0531 182° South 415 478 28,000  Level Boston Center
Wed 03:13:29 PM 41.6800 -74.0650 182° South 413 475 28,000  Level New York Center
Wed 03:14:29 PM 41.5797 -74.0711 183° South 413 475 28,000  Level New York Center
Wed 03:15:27 PM 41.4653 -74.0739 181° South 408 470 28,000  Level New York Center
Wed 03:16:27 PM 41.3519 -74.1042 191° South 408 470 28,000  Level New York Center
Wed 03:17:28 PM 41.2681 -74.1994 220° Southwest 383 441 28,000  Level New York Center
Wed 03:18:29 PM 41.1800 -74.2914 218° Southwest 400 460 28,000  Level New York Center
Wed 03:19:27 PM 41.0939 -74.3833 219° Southwest 405 466 28,000  Level New York Center
Wed 03:20:27 PM 41.0075 -74.4775 219° Southwest 405 466 28,000  Level New York Center
Wed 03:21:27 PM 40.9233 -74.5719 220° Southwest 405 466 28,000  Level New York Center
Wed 03:22:28 PM 40.8714 -74.6925 240° Southwest 390 449 28,000  Level New York Center
Wed 03:23:29 PM 40.8314 -74.8272 249° West 390 449 28,000  Level New York Center
Wed 03:24:27 PM 40.7894 -74.9617 248° West 396 456 28,000  Level New York Center
Wed 03:25:28 PM 40.7492 -75.0936 248° West 396 456 28,000  Level New York Center
Wed 03:26:28 PM 40.7089 -75.2250 248° West 396 456 28,000  Level New York Center
Wed 03:27:29 PM 40.6683 -75.3567 248° West 396 456 28,000 -706 Level New York Center
Wed 03:28:27 PM 40.6156 -75.4842 241° Southwest 391 450 26,600 -1,780 Descending New York Center
Wed 03:29:27 PM 40.5600 -75.6197 242° Southwest 405 466 24,500 -2,083 Descending New York Center
Wed 03:30:28 PM 40.5025 -75.7494 240° Southwest 410 472 22,400 -2,182 Descending New York Center
Wed 03:31:28 PM 40.4450 -75.8761 239° Southwest 410 472 20,100 -1,200 Descending New York Center
Wed 03:32:28 PM 40.3672 -75.9822 226° Southwest 390 449 20,000 -50 Descending New York Center
Wed 03:33:28 PM 40.2989 -76.0669 223° Southwest 367 422 20,000  Level New York Center
Wed 03:34:30 PM 40.2283 -76.1539 223° Southwest 351 404 20,000  Level New York Center
Wed 03:35:27 PM 40.1708 -76.2283 225° Southwest 339 390 20,000 -153 Level New York Center
Wed 03:36:28 PM 40.1036 -76.3236 227° Southwest 345 397 19,700 -825 Descending New York Center
Wed 03:38:07 PM 40.0167 -76.5167 240° Southwest 370 426 17,800 -1,094 Descending Potomac TRACON
Wed 03:39:07 PM 39.9667 -76.6333 241° Southwest 368 423 16,800 -992 Descending Potomac TRACON
Wed 03:40:08 PM 39.9167 -76.7333 237° Southwest 342 394 15,800 -893 Descending Potomac TRACON
Wed 03:41:08 PM 39.8667 -76.8167 232° Southwest 271 312 15,000 -500 Descending Potomac TRACON
Wed 03:42:08 PM 39.8333 -76.9000 243° Southwest 255 293 14,800 -522 Descending Potomac TRACON
Wed 03:43:03 PM 39.8000 -76.9833 243° Southwest 256 295 14,000 -835 Descending Potomac TRACON
Wed 03:44:03 PM 39.7667 -77.0500 237° Southwest 250 288 13,200 -1,200 Descending Potomac TRACON
Wed 03:45:03 PM 39.7333 -77.1333 243° Southwest 240 276 11,600 -1,934 Descending Potomac TRACON
Wed 03:46:04 PM 39.7000 -77.2000 237° Southwest 243 280 9,300 -1,785 Descending Potomac TRACON
Wed 03:47:04 PM 39.6667 -77.2833 243° Southwest 241 277 8,000 -645 Descending Potomac TRACON
Wed 03:48:05 PM 39.6167 -77.3500 226° Southwest 241 277 8,000  Level Potomac TRACON
Wed 03:48:59 PM 39.5667 -77.3833 207° Southwest 240 276 8,000 -783 Level Potomac TRACON
Wed 03:50:00 PM 39.5000 -77.4167 201° Southwest 248 285 6,500 -1,636 Descending Potomac TRACON
Wed 03:51:00 PM 39.4333 -77.4333 191° South 237 273 4,700 -1,250 Descending Potomac TRACON
Wed 03:52:00 PM 39.3667 -77.4333 180° South 229 264 4,000 -350 Descending Potomac TRACON
Wed 03:53:00 PM 39.3167 -77.4333 180° South 190 219 4,000 -313 Level Potomac TRACON
Wed 03:53:55 PM 39.2667 -77.4333 180° South 178 205 3,400 -574 Descending Potomac TRACON
Wed 03:54:55 PM 39.2167 -77.4333 180° South 184 212 2,900 -200 Descending Potomac TRACON
Wed 03:55:55 PM 39.1833 -77.4333 180° South 151 174 3,000 50 Climbing Potomac TRACON
Wed 03:56:56 PM 39.1333 -77.4333 180° South 162 186 3,000 -52 Level Potomac TRACON
Wed 03:57:50 PM 39.0833 -77.4333 180° South 163 188 2,900 -474 Descending Potomac TRACON
Wed 03:58:50 PM 39.0500 -77.4333 180° South 150 173 2,100 -800 Descending Potomac TRACON

Login

Don't have an account? Register now (free) for customized features, flight alerts, and more!